Time;durP1;ratioP1;P1;durP2;ratioP2;P2;SDS_P1;SDS_P2;PMS_P1;PMS_P2;Temp;Humidity;BMP_temperature;BMP_pressure;BME280_temperature;BME280_humidity;BME280_pressure;Samples;Min_cycle;Max_cycle;Signal;HPM_P1;HPM_P2
2022/12/10 00:01:15;;;;;;;24.17;18.63;;;;;;;1.48;100.00;96888.28;5096029;28;20228;-72
2022/12/10 00:03:42;;;;;;;24.13;19.27;;;;;;;1.47;100.00;96878.78;5096378;28;20188;-72
2022/12/10 00:06:12;;;;;;;25.63;19.63;;;;;;;1.55;100.00;96892.56;5096024;28;20214;-72
2022/12/10 00:08:38;;;;;;;23.17;18.43;;;;;;;1.68;100.00;96879.56;5095937;28;20214;-72
2022/12/10 00:11:06;;;;;;;24.43;19.10;;;;;;;1.60;100.00;96878.88;5095830;28;20223;-72
2022/12/10 00:13:34;;;;;;;26.10;18.33;;;;;;;1.50;100.00;96876.63;5095971;28;20223;-72
2022/12/10 00:16:01;;;;;;;24.87;19.30;;;;;;;1.41;100.00;96879.56;5095776;28;20662;-72
2022/12/10 00:18:28;;;;;;;23.03;18.23;;;;;;;1.34;100.00;96879.50;5095691;28;20549;-72
2022/12/10 00:20:55;;;;;;;24.90;19.63;;;;;;;1.41;100.00;96890.03;5095916;28;20314;-72
2022/12/10 00:23:22;;;;;;;26.03;19.67;;;;;;;1.37;100.00;96894.03;5095977;28;20200;-72
2022/12/10 00:25:48;;;;;;;24.33;19.43;;;;;;;1.39;100.00;96892.06;5095597;28;20662;-72
2022/12/10 00:28:14;;;;;;;23.73;18.97;;;;;;;1.45;100.00;96893.91;5096547;28;20543;-72
2022/12/10 00:30:41;;;;;;;22.37;17.87;;;;;;;1.50;100.00;96891.53;5095720;28;20311;-72
2022/12/10 00:33:07;;;;;;;23.20;18.90;;;;;;;1.61;100.00;96889.19;5096219;28;20226;-72
2022/12/10 00:35:36;;;;;;;23.20;18.63;;;;;;;1.60;100.00;96884.13;5095642;28;20200;-72
2022/12/10 00:38:03;;;;;;;22.53;17.17;;;;;;;1.46;100.00;96875.38;5095017;28;20688;-72
2022/12/10 00:40:29;;;;;;;25.43;19.23;;;;;;;1.51;100.00;96874.81;5095579;28;20208;-72
2022/12/10 00:42:56;;;;;;;23.97;18.60;;;;;;;1.41;100.00;96880.38;5095190;28;20211;-72
2022/12/10 00:45:22;;;;;;;26.17;18.50;;;;;;;1.54;100.00;96869.19;5095225;28;20208;-72
2022/12/10 00:47:49;;;;;;;23.37;18.73;;;;;;;1.41;100.00;96876.94;5096071;28;20205;-72
2022/12/10 00:50:15;;;;;;;22.83;18.60;;;;;;;1.35;100.00;96873.28;5095364;28;20230;-72
2022/12/10 00:52:41;;;;;;;27.40;19.80;;;;;;;1.28;100.00;96882.91;5094931;28;20313;-72
2022/12/10 00:55:08;;;;;;;23.70;18.80;;;;;;;1.28;100.00;96882.91;5095249;28;20234;-72
2022/12/10 00:57:34;;;;;;;25.87;19.43;;;;;;;1.29;100.00;96881.06;5095296;28;20203;-72
2022/12/10 01:00:01;;;;;;;23.57;18.60;;;;;;;1.38;100.00;96885.16;5095533;28;20233;-72
2022/12/10 01:02:27;;;;;;;24.47;19.17;;;;;;;1.32;100.00;96894.63;5095179;28;20223;-72
2022/12/10 01:04:54;;;;;;;24.60;18.13;;;;;;;1.33;100.00;96893.63;5095103;28;20202;-72
2022/12/10 01:07:20;;;;;;;22.50;18.13;;;;;;;1.43;100.00;96895.88;5094814;28;20290;-72
2022/12/10 01:09:47;;;;;;;22.77;18.10;;;;;;;1.30;100.00;96901.84;5095073;28;20204;-72
2022/12/10 01:12:13;;;;;;;21.87;17.23;;;;;;;1.38;100.00;96898.25;5094626;28;20718;-72
2022/12/10 01:14:40;;;;;;;24.90;19.00;;;;;;;1.41;100.00;96903.97;5094896;28;20242;-72
2022/12/10 01:17:07;;;;;;;24.97;18.77;;;;;;;1.46;100.00;96911.22;5094849;28;20208;-72
2022/12/10 01:19:34;;;;;;;24.43;17.97;;;;;;;1.32;100.00;96912.13;5094666;28;20249;-72
2022/12/10 01:22:01;;;;;;;23.27;18.53;;;;;;;1.32;100.00;96909.50;5094733;28;20224;-72
2022/12/10 01:24:29;;;;;;;24.17;18.63;;;;;;;1.34;100.00;96915.34;5094440;28;20196;-72
2022/12/10 01:26:56;;;;;;;23.70;19.27;;;;;;;1.32;100.00;96915.56;5094776;28;20226;-72
2022/12/10 01:29:23;;;;;;;23.73;18.03;;;;;;;1.55;100.00;96924.00;5094711;28;20288;-72
2022/12/10 01:31:52;;;;;;;24.03;17.73;;;;;;;1.57;100.00;96934.28;5094593;28;20230;-72
2022/12/10 01:34:19;;;;;;;22.77;17.83;;;;;;;1.48;100.00;96930.97;5094457;28;20224;-72
2022/12/10 01:36:50;;;;;;;24.00;17.73;;;;;;;1.48;100.00;96928.38;5094577;28;20200;-72
2022/12/10 01:39:18;;;;;;;22.60;17.87;;;;;;;1.51;100.00;96937.66;5094271;28;20627;-72
2022/12/10 01:41:47;;;;;;;22.83;17.87;;;;;;;1.45;100.00;96943.66;5094236;28;20224;-72
2022/12/10 01:44:14;;;;;;;22.17;17.40;;;;;;;1.49;100.00;96943.06;5094345;28;20237;-72
2022/12/10 01:46:46;;;;;;;25.80;18.50;;;;;;;1.46;100.00;96951.31;5094344;28;20215;-72
2022/12/10 01:49:22;;;;;;;23.77;17.83;;;;;;;1.48;100.00;96954.56;5093441;28;20258;-72
2022/12/10 01:51:52;;;;;;;23.13;18.03;;;;;;;1.51;100.00;96945.50;5093974;28;20234;-71
2022/12/10 01:54:33;;;;;;;23.80;18.00;;;;;;;1.43;100.00;96945.63;5094272;28;20208;-72
2022/12/10 01:57:22;;;;;;;23.43;18.17;;;;;;;1.25;100.00;96945.28;5093897;28;20194;-72
2022/12/10 01:59:57;;;;;;;23.23;19.27;;;;;;;1.27;100.00;96944.13;5094057;28;20184;-72
2022/12/10 02:02:35;;;;;;;26.00;18.47;;;;;;;1.18;100.00;96944.41;5094051;28;20223;-72
2022/12/10 02:05:21;;;;;;;24.47;18.43;;;;;;;1.22;100.00;96948.28;5094576;28;20222;-72
2022/12/10 02:08:24;;;;;;;24.53;18.33;;;;;;;1.30;100.00;96945.53;5094070;28;20231;-72
2022/12/10 02:11:48;;;;;;;21.00;17.63;;;;;;;1.22;100.00;96941.22;5093928;28;20231;-72
2022/12/10 02:14:41;;;;;;;24.83;17.90;;;;;;;1.27;100.00;96945.91;5000576;28;20226;-72
2022/12/10 02:17:33;;;;;;;23.53;18.33;;;;;;;1.35;100.00;96940.56;4996756;28;20216;-72
2022/12/10 02:20:08;;;;;;;25.43;17.53;;;;;;;1.31;100.00;96941.94;5078906;28;20204;-72
2022/12/10 02:22:40;;;;;;;23.43;17.83;;;;;;;1.31;100.00;96934.84;5093514;28;20232;-72
2022/12/10 02:25:09;;;;;;;25.03;17.53;;;;;;;1.24;100.00;96931.41;5093552;28;20726;-72
2022/12/10 02:27:44;;;;;;;24.17;18.27;;;;;;;1.31;100.00;96936.69;5093772;28;20204;-72
2022/12/10 02:30:12;;;;;;;23.63;18.57;;;;;;;1.25;100.00;96929.56;5093332;28;20605;-72
2022/12/10 02:32:42;;;;;;;24.60;18.57;;;;;;;1.25;100.00;96930.38;5093537;28;20224;-72
2022/12/10 02:35:31;;;;;;;23.33;17.90;;;;;;;1.26;100.00;96931.22;5093513;28;20224;-72
2022/12/10 02:38:02;;;;;;;23.50;18.10;;;;;;;1.23;100.00;96934.19;5093375;28;20552;-72
2022/12/10 02:40:33;;;;;;;21.50;17.07;;;;;;;1.36;100.00;96921.22;5093598;28;20223;-72
2022/12/10 02:42:59;;;;;;;21.77;16.87;;;;;;;1.33;100.00;96914.56;5093639;28;20192;-72
2022/12/10 02:45:29;;;;;;;21.87;17.83;;;;;;;1.29;100.00;96918.53;5093558;28;20204;-72
2022/12/10 02:47:59;;;;;;;20.00;17.00;;;;;;;1.27;100.00;96924.97;5093519;28;20206;-72
2022/12/10 02:50:26;;;;;;;20.23;16.93;;;;;;;1.15;100.00;96910.75;5093481;28;20204;-72
2022/12/10 02:52:52;;;;;;;25.17;18.67;;;;;;;1.08;100.00;96909.91;5093084;28;20720;-72
2022/12/10 02:55:20;;;;;;;22.00;17.80;;;;;;;1.09;100.00;96912.34;5093438;28;20234;-72
2022/12/10 02:58:17;;;;;;;22.00;17.00;;;;;;;1.08;100.00;96904.66;5093164;28;20211;-72
2022/12/10 03:00:56;;;;;;;23.67;18.10;;;;;;;0.93;100.00;96890.81;5096285;28;20222;-72
2022/12/10 03:03:27;;;;;;;22.47;17.10;;;;;;;0.92;100.00;96889.22;5097581;28;20192;-72
2022/12/10 03:06:04;;;;;;;23.53;18.53;;;;;;;0.79;100.00;96891.69;5097507;28;20194;-72
2022/12/10 03:08:49;;;;;;;23.17;17.53;;;;;;;0.74;100.00;96904.53;5097467;28;20188;-72
2022/12/10 03:11:19;;;;;;;24.77;18.10;;;;;;;0.84;100.00;96905.03;5097347;28;20234;-72
2022/12/10 03:13:58;;;;;;;20.27;17.00;;;;;;;0.93;100.00;96909.13;5097258;28;20246;-72
2022/12/10 03:16:27;;;;;;;23.33;17.70;;;;;;;0.95;100.00;96904.53;5097333;28;20188;-72
2022/12/10 03:19:00;;;;;;;24.93;18.23;;;;;;;0.93;100.00;96907.34;5097031;28;20199;-72
2022/12/10 03:21:29;;;;;;;24.17;18.40;;;;;;;0.95;100.00;96905.34;5078888;28;20235;-72
2022/12/10 03:23:56;;;;;;;23.53;18.47;;;;;;;0.96;100.00;96911.41;5097118;28;20196;-72
2022/12/10 03:26:24;;;;;;;24.97;17.60;;;;;;;0.97;100.00;96919.06;5097148;28;20208;-72
2022/12/10 03:28:56;;;;;;;24.63;18.10;;;;;;;0.94;100.00;96913.41;5096966;28;20203;-72
2022/12/10 03:31:23;;;;;;;22.00;17.00;;;;;;;0.96;100.00;96906.97;5078879;28;20230;-72
2022/12/10 03:33:51;;;;;;;22.57;18.33;;;;;;;1.00;100.00;96895.16;5096887;28;20223;-72
2022/12/10 03:36:20;;;;;;;20.67;16.67;;;;;;;0.94;100.00;96884.63;5078990;28;20200;-72
2022/12/10 03:38:46;;;;;;;22.73;17.63;;;;;;;0.91;100.00;96879.75;5096544;28;20675;-72
2022/12/10 03:41:13;;;;;;;25.70;19.20;;;;;;;0.83;100.00;96885.91;5096432;28;20262;-72
2022/12/10 03:43:57;;;;;;;24.33;17.77;;;;;;;0.83;100.00;96887.72;5096795;28;20211;-72
2022/12/10 03:46:25;;;;;;;22.00;17.97;;;;;;;0.84;100.00;96892.78;5096371;28;20688;-72
2022/12/10 03:48:52;;;;;;;23.23;18.17;;;;;;;0.79;100.00;96894.31;5096379;28;20690;-72
2022/12/10 03:51:18;;;;;;;22.90;18.10;;;;;;;0.85;100.00;96899.63;5096316;28;20238;-72
2022/12/10 03:53:44;;;;;;;21.93;17.67;;;;;;;0.87;100.00;96902.03;5096429;28;20206;-72
2022/12/10 03:56:11;;;;;;;23.43;18.53;;;;;;;0.90;100.00;96902.47;5096186;28;20207;-72
2022/12/10 03:58:38;;;;;;;21.77;18.00;;;;;;;0.95;100.00;96904.53;5096386;28;20204;-72
2022/12/10 04:01:05;;;;;;;22.97;18.20;;;;;;;1.02;100.00;96921.09;5096339;28;20226;-72
2022/12/10 04:03:34;;;;;;;24.27;18.00;;;;;;;1.10;100.00;96927.03;5096346;28;20230;-72
2022/12/10 04:06:07;;;;;;;24.33;17.67;;;;;;;1.06;100.00;96927.59;5096297;28;20200;-72
2022/12/10 04:08:33;;;;;;;21.77;17.63;;;;;;;1.08;100.00;96930.84;5096243;28;20210;-72
2022/12/10 04:11:08;;;;;;;22.77;17.50;;;;;;;1.10;100.00;96934.06;5095253;28;20234;-72
2022/12/10 04:16:29;;;;;;;22.90;17.20;;;;;;;1.25;100.00;96929.56;5096005;28;20309;-72
2022/12/10 04:18:58;;;;;;;20.50;16.73;;;;;;;1.30;100.00;96924.59;5096542;28;20620;-72
2022/12/10 04:26:57;;;;;;;21.17;16.90;;;;;;;1.30;100.00;96932.47;5095752;28;20258;-72
2022/12/10 04:29:25;;;;;;;22.63;17.80;;;;;;;1.22;100.00;96936.00;5095901;28;20211;-72
2022/12/10 04:31:52;;;;;;;22.53;17.47;;;;;;;1.14;100.00;96937.94;5095761;28;20231;-72
2022/12/10 04:34:19;;;;;;;23.03;17.77;;;;;;;1.15;100.00;96932.53;5095726;28;20227;-72
2022/12/10 04:36:46;;;;;;;25.20;18.17;;;;;;;1.07;100.00;96939.69;5095702;28;20210;-72
2022/12/10 04:39:13;;;;;;;23.43;18.80;;;;;;;1.07;100.00;96944.94;5095357;28;20210;-72
2022/12/10 04:41:44;;;;;;;22.47;18.33;;;;;;;1.14;100.00;96951.84;5095278;28;20725;-72
2022/12/10 04:44:10;;;;;;;24.00;18.67;;;;;;;1.11;100.00;96952.22;5095291;28;20654;-72
2022/12/10 04:46:37;;;;;;;25.00;18.63;;;;;;;1.11;100.00;96940.91;5095494;28;20234;-71
2022/12/10 04:49:05;;;;;;;21.80;17.50;;;;;;;1.13;100.00;96941.56;5077559;28;20207;-72
2022/12/10 04:51:32;;;;;;;24.83;18.50;;;;;;;1.13;100.00;96944.97;5095138;28;20247;-72
2022/12/10 04:53:59;;;;;;;27.23;19.53;;;;;;;1.04;100.00;96955.75;5094998;28;20593;-72
2022/12/10 04:56:26;;;;;;;22.80;18.13;;;;;;;1.09;100.00;96948.16;5095202;28;20208;-72
2022/12/10 04:58:53;;;;;;;21.97;17.50;;;;;;;0.99;100.00;96952.91;5095285;28;20210;-72
2022/12/10 05:01:19;;;;;;;27.13;19.60;;;;;;;0.94;100.00;96952.66;5095165;28;20220;-72
2022/12/10 05:03:45;;;;;;;26.27;19.17;;;;;;;1.02;100.00;96955.13;5095156;28;20566;-72
2022/12/10 05:06:14;;;;;;;23.40;18.87;;;;;;;1.00;100.00;96955.31;5094989;28;20207;-72
2022/12/10 05:08:42;;;;;;;23.90;17.77;;;;;;;1.12;100.00;96947.78;5095001;28;20204;-72
2022/12/10 05:11:12;;;;;;;23.50;18.73;;;;;;;1.02;100.00;96945.47;5094605;28;20232;-72
2022/12/10 05:13:39;;;;;;;22.53;18.20;;;;;;;1.00;100.00;96944.88;5094915;28;20204;-72
2022/12/10 05:16:07;;;;;;;25.67;19.30;;;;;;;0.92;100.00;96949.38;5094766;28;20227;-72
2022/12/10 05:18:34;;;;;;;25.27;19.57;;;;;;;0.96;100.00;96948.84;5094541;28;20673;-72
2022/12/10 05:21:05;;;;;;;29.13;19.60;;;;;;;0.90;100.00;96956.63;5094460;28;20228;-72
2022/12/10 05:23:31;;;;;;;24.40;19.33;;;;;;;0.94;100.00;96950.03;5094455;28;20195;-72
2022/12/10 05:26:11;;;;;;;24.37;19.30;;;;;;;0.97;100.00;96953.06;5094714;28;20204;-72
2022/12/10 05:28:43;;;;;;;25.00;19.40;;;;;;;0.92;100.00;96944.16;5094352;28;20199;-72
2022/12/10 05:31:27;;;;;;;26.00;19.60;;;;;;;0.84;100.00;96950.31;5094625;28;20230;-72
2022/12/10 05:33:55;;;;;;;24.93;19.03;;;;;;;0.90;100.00;96954.00;5095092;28;20192;-72
2022/12/10 05:36:24;;;;;;;23.07;18.97;;;;;;;0.85;100.00;96951.13;5094198;28;20214;-72
2022/12/10 05:38:51;;;;;;;24.30;19.93;;;;;;;0.79;100.00;96957.09;5094175;28;20204;-72
2022/12/10 05:41:20;;;;;;;28.37;21.30;;;;;;;0.74;100.00;96954.22;5094405;28;20229;-72
2022/12/10 05:43:47;;;;;;;26.43;19.83;;;;;;;0.70;100.00;96963.44;5094367;28;20206;-72
2022/12/10 05:46:22;;;;;;;27.87;20.90;;;;;;;0.72;100.00;96958.84;5094428;28;20222;-72
2022/12/10 05:48:49;;;;;;;28.37;21.00;;;;;;;0.83;100.00;96959.16;5094328;28;20188;-72
2022/12/10 05:51:19;;;;;;;28.90;20.80;;;;;;;0.77;100.00;96959.09;5093876;28;20227;-72
2022/12/10 05:53:46;;;;;;;28.33;20.53;;;;;;;0.69;100.00;96953.97;5093979;28;20188;-72
2022/12/10 05:56:15;;;;;;;26.37;18.93;;;;;;;0.83;100.00;96955.72;5093773;28;20238;-72
2022/12/10 05:58:43;;;;;;;25.00;19.23;;;;;;;0.83;100.00;96963.56;5094179;28;20203;-72
2022/12/10 06:01:14;;;;;;;24.83;19.73;;;;;;;0.74;100.00;96965.50;5094307;28;20235;-72
2022/12/10 06:03:40;;;;;;;26.33;20.30;;;;;;;0.55;100.00;96963.47;5094067;28;20193;-72
2022/12/10 06:06:07;;;;;;;29.93;21.53;;;;;;;0.54;100.00;96968.88;5093645;28;20204;-72
2022/12/10 06:08:35;;;;;;;29.27;21.27;;;;;;;0.63;100.00;96970.41;5093830;28;20211;-72
2022/12/10 06:11:06;;;;;;;26.60;19.33;;;;;;;0.70;100.00;96981.72;5093836;28;20224;-72
2022/12/10 06:13:32;;;;;;;25.63;19.63;;;;;;;0.77;100.00;96978.19;5093975;28;20253;-72
2022/12/10 06:15:59;;;;;;;28.87;21.33;;;;;;;0.58;100.00;96986.63;5093739;28;20224;-72
2022/12/10 06:18:25;;;;;;;26.43;19.57;;;;;;;0.76;100.00;96989.66;5093458;28;20677;-72
2022/12/10 06:20:52;;;;;;;26.83;20.97;;;;;;;0.75;100.00;96993.28;5093324;28;20727;-72
2022/12/10 06:23:18;;;;;;;25.17;19.17;;;;;;;0.79;100.00;97004.16;5093333;28;20549;-72
2022/12/10 06:25:44;;;;;;;25.60;20.33;;;;;;;0.70;100.00;96995.63;5093725;28;20207;-72
2022/12/10 06:28:11;;;;;;;27.07;20.73;;;;;;;0.75;100.00;96990.66;5093744;28;20203;-72
2022/12/10 06:30:37;;;;;;;27.13;20.27;;;;;;;0.74;100.00;96990.84;5093588;28;20210;-72
2022/12/10 06:33:03;;;;;;;24.70;19.47;;;;;;;0.80;100.00;96995.34;5093344;28;20207;-72
2022/12/10 06:35:30;;;;;;;25.10;19.70;;;;;;;0.86;100.00;96997.22;5092795;28;20224;-71
2022/12/10 06:37:56;;;;;;;26.83;20.00;;;;;;;0.97;100.00;97001.97;5093195;28;20226;-72
2022/12/10 06:40:23;;;;;;;27.23;20.20;;;;;;;0.80;100.00;97006.59;5093089;28;20212;-72
2022/12/10 06:42:52;;;;;;;25.83;19.90;;;;;;;0.82;100.00;97006.44;5093172;28;20658;-72
2022/12/10 06:45:18;;;;;;;23.87;18.73;;;;;;;0.88;100.00;97006.50;5093534;28;20227;-72
2022/12/10 06:47:45;;;;;;;23.97;19.37;;;;;;;0.87;100.00;97019.78;5093183;28;20211;-72
2022/12/10 06:50:11;;;;;;;23.20;18.37;;;;;;;0.89;100.00;97021.22;5093415;28;20238;-72
2022/12/10 06:52:38;;;;;;;24.80;19.43;;;;;;;0.75;100.00;97018.59;5093000;28;20231;-72
2022/12/10 06:55:04;;;;;;;26.30;19.93;;;;;;;0.66;100.00;97023.13;5093029;28;20693;-72
2022/12/10 06:57:31;;;;;;;27.30;19.83;;;;;;;0.60;100.00;97018.66;5093302;28;20209;-72
2022/12/10 06:59:57;;;;;;;29.13;20.90;;;;;;;0.69;100.00;97014.94;5093409;28;20204;-72
2022/12/10 07:02:23;;;;;;;24.50;19.63;;;;;;;0.66;100.00;97014.47;5092793;28;20235;-72
2022/12/10 07:04:50;;;;;;;25.93;19.00;;;;;;;0.64;100.00;97011.25;5093291;28;20206;-72
2022/12/10 07:07:16;;;;;;;27.97;20.53;;;;;;;0.66;100.00;97014.47;5093355;28;20210;-72
2022/12/10 07:09:42;;;;;;;25.77;20.47;;;;;;;0.73;100.00;97020.59;5093976;28;20214;-72
2022/12/10 07:12:09;;;;;;;27.37;20.97;;;;;;;0.78;100.00;97010.41;5092847;28;20230;-72
2022/12/10 07:14:35;;;;;;;23.90;19.53;;;;;;;0.80;100.00;97019.69;5092761;28;20206;-72
2022/12/10 07:17:02;;;;;;;26.00;19.13;;;;;;;0.82;100.00;97022.13;5092942;28;20210;-72
2022/12/10 07:19:28;;;;;;;28.07;20.10;;;;;;;0.74;100.00;97011.75;5093056;28;20208;-72
2022/12/10 07:21:54;;;;;;;25.87;20.13;;;;;;;0.74;100.00;97023.03;5092962;28;20219;-72
2022/12/10 07:24:21;;;;;;;27.23;20.20;;;;;;;0.81;100.00;97023.91;5092986;28;20226;-72
2022/12/10 07:26:47;;;;;;;24.80;19.57;;;;;;;0.84;100.00;97025.34;5093029;28;20210;-72
2022/12/10 07:29:17;;;;;;;22.67;18.53;;;;;;;0.95;100.00;97036.16;5093693;28;20214;-72
2022/12/10 07:31:45;;;;;;;23.20;18.07;;;;;;;0.82;100.00;97040.44;5093080;28;20234;-72
2022/12/10 07:34:12;;;;;;;26.70;20.30;;;;;;;0.77;100.00;97037.56;5092811;28;20253;-72
2022/12/10 07:36:39;;;;;;;25.47;19.47;;;;;;;0.83;100.00;97039.44;5092715;28;20227;-72
2022/12/10 07:39:07;;;;;;;25.07;19.83;;;;;;;0.85;100.00;97037.47;5092798;28;20258;-72
2022/12/10 07:41:34;;;;;;;26.37;19.43;;;;;;;0.84;100.00;97047.09;5092224;28;20725;-72
2022/12/10 07:44:01;;;;;;;25.33;19.67;;;;;;;0.87;100.00;97052.00;5092657;28;20204;-72
2022/12/10 07:46:30;;;;;;;26.67;19.63;;;;;;;0.90;100.00;97050.81;5093325;28;20509;-71
2022/12/10 07:48:57;;;;;;;26.13;20.77;;;;;;;0.94;100.00;97054.69;5096167;28;20678;-72
2022/12/10 07:51:23;;;;;;;25.03;19.67;;;;;;;0.99;100.00;97052.31;5096120;28;20237;-72
2022/12/10 07:53:52;;;;;;;24.17;18.97;;;;;;;1.00;100.00;97060.00;5096323;28;20212;-72
2022/12/10 07:56:19;;;;;;;27.07;20.10;;;;;;;0.92;100.00;97060.09;5096649;28;20242;-72
2022/12/10 07:58:46;;;;;;;23.73;19.27;;;;;;;0.95;100.00;97059.72;5096228;28;20207;-72
2022/12/10 08:01:15;;;;;;;23.33;18.90;;;;;;;1.06;100.00;97058.44;5095982;28;20226;-72
2022/12/10 08:03:42;;;;;;;23.53;18.23;;;;;;;1.13;100.00;97060.13;5096014;28;20199;-72
2022/12/10 08:06:15;;;;;;;24.00;20.03;;;;;;;1.13;100.00;97059.31;5095942;28;20206;-72
2022/12/10 08:08:43;;;;;;;24.30;18.83;;;;;;;1.18;100.00;97070.88;5095898;28;20229;-72
2022/12/10 08:11:10;;;;;;;23.90;18.83;;;;;;;1.24;100.00;97066.69;5095752;28;20226;-72
2022/12/10 08:13:37;;;;;;;22.33;18.03;;;;;;;1.23;100.00;97067.69;5095836;28;20210;-72
2022/12/10 08:16:10;;;;;;;25.10;20.13;;;;;;;1.10;100.00;97072.78;5095785;28;20224;-72
2022/12/10 08:18:37;;;;;;;24.80;19.70;;;;;;;1.19;100.00;97069.88;5095611;28;20192;-72
2022/12/10 08:21:08;;;;;;;26.97;20.53;;;;;;;0.96;100.00;97081.47;5095622;28;20220;-72
2022/12/10 08:23:35;;;;;;;25.90;19.87;;;;;;;1.04;100.00;97071.69;5095496;28;20211;-72
2022/12/10 08:26:11;;;;;;;23.87;18.43;;;;;;;1.11;100.00;97077.81;5095102;28;20202;-72
2022/12/10 08:28:38;;;;;;;27.07;19.97;;;;;;;0.92;100.00;97069.75;5095512;28;20204;-72
2022/12/10 08:31:05;;;;;;;25.00;19.40;;;;;;;0.98;100.00;97071.66;5095331;28;20224;-72
2022/12/10 08:33:35;;;;;;;24.60;19.57;;;;;;;1.06;100.00;97079.38;5095397;28;20235;-72
2022/12/10 08:36:02;;;;;;;25.27;20.20;;;;;;;1.07;100.00;97076.56;5095484;28;20215;-72
2022/12/10 08:38:30;;;;;;;24.07;19.63;;;;;;;1.20;100.00;97081.13;5095469;28;20200;-71
2022/12/10 08:40:57;;;;;;;29.53;21.90;;;;;;;0.97;100.00;97075.22;5094898;28;20329;-72
2022/12/10 08:43:23;;;;;;;24.97;21.03;;;;;;;1.09;100.00;97069.38;5094787;28;20667;-72
2022/12/10 08:45:50;;;;;;;25.00;21.67;;;;;;;1.13;100.00;97081.06;5095040;28;20218;-71
2022/12/10 08:48:16;;;;;;;26.70;19.63;;;;;;;1.20;100.00;97071.50;5094779;28;20216;-72
2022/12/10 08:50:43;;;;;;;27.63;20.67;;;;;;;1.25;100.00;97078.78;5094963;28;20219;-72
2022/12/10 08:53:09;;;;;;;28.30;20.57;;;;;;;1.12;100.00;97086.50;5095236;28;20188;-72
2022/12/10 08:55:40;;;;;;;25.67;20.33;;;;;;;1.21;100.00;97094.03;5094947;28;20242;-72
2022/12/10 08:58:06;;;;;;;25.47;19.83;;;;;;;1.35;100.00;97101.06;5094556;28;20192;-72
2022/12/10 09:00:32;;;;;;;23.83;19.00;;;;;;;1.40;100.00;97096.06;5094873;28;20200;-72
2022/12/10 09:02:59;;;;;;;25.47;20.20;;;;;;;1.43;100.00;97107.97;5095241;28;20203;-72
2022/12/10 09:05:25;;;;;;;25.23;19.60;;;;;;;1.46;100.00;97105.00;5094900;28;20564;-72
2022/12/10 09:07:51;;;;;;;25.63;18.93;;;;;;;1.53;100.00;97106.69;5095313;28;20538;-72
2022/12/10 09:10:18;;;;;;;24.70;19.50;;;;;;;1.57;100.00;97105.31;5094512;28;20204;-72
2022/12/10 09:12:44;;;;;;;24.10;18.77;;;;;;;1.75;100.00;97112.78;5094659;28;20211;-72
2022/12/10 09:15:11;;;;;;;24.23;19.27;;;;;;;1.65;100.00;97118.31;5094612;28;20232;-72
2022/12/10 09:17:38;;;;;;;22.90;18.73;;;;;;;1.71;100.00;97120.19;5094286;28;20206;-72
2022/12/10 09:20:06;;;;;;;25.20;19.63;;;;;;;1.24;100.00;97114.63;5094491;28;20207;-72
2022/12/10 09:22:36;;;;;;;26.10;19.37;;;;;;;1.50;100.00;97119.34;5094486;28;20227;-72
2022/12/10 09:25:03;;;;;;;27.83;20.37;;;;;;;1.57;100.00;97115.81;5094206;28;20714;-72
2022/12/10 09:27:31;;;;;;;25.50;20.70;;;;;;;1.57;100.00;97120.25;5094021;28;20218;-72
2022/12/10 09:29:57;;;;;;;22.77;18.20;;;;;;;1.61;100.00;97119.69;5094155;28;20199;-72
2022/12/10 09:32:23;;;;;;;26.03;19.00;;;;;;;1.58;100.00;97130.50;5093978;28;20232;-72
2022/12/10 09:34:54;;;;;;;26.27;19.20;;;;;;;1.64;100.00;97131.59;5094343;28;20200;-72
2022/12/10 09:37:20;;;;;;;23.50;18.77;;;;;;;1.53;100.00;97135.50;5093831;28;20693;-72
2022/12/10 09:39:47;;;;;;;23.33;18.67;;;;;;;1.57;100.00;97133.34;5094062;28;20286;-72
2022/12/10 09:42:25;;;;;;;24.77;19.97;;;;;;;1.72;100.00;97137.50;5094158;28;20227;-72
2022/12/10 09:45:04;;;;;;;24.60;19.10;;;;;;;1.78;100.00;97125.47;5094157;28;20200;-72
2022/12/10 09:47:37;;;;;;;23.27;18.87;;;;;;;1.78;100.00;97115.81;5093856;28;20204;-72
2022/12/10 09:50:26;;;;;;;24.67;20.20;;;;;;;1.83;100.00;97123.09;5094118;28;20188;-72
2022/12/10 09:52:54;;;;;;;21.53;17.73;;;;;;;1.73;100.00;97118.19;5093604;28;20217;-72
2022/12/10 09:55:32;;;;;;;22.17;18.80;;;;;;;1.70;100.00;97130.84;5093887;28;20227;-72
2022/12/10 09:57:59;;;;;;;24.70;19.13;;;;;;;1.68;100.00;97127.59;5093790;28;20191;-72
2022/12/10 10:00:37;;;;;;;21.37;17.60;;;;;;;1.91;100.00;97123.00;5093473;28;20211;-72
2022/12/10 10:03:06;;;;;;;25.83;18.27;;;;;;;1.87;100.00;97126.97;5094190;28;20212;-72
2022/12/10 10:05:36;;;;;;;23.23;18.17;;;;;;;2.00;100.00;97132.34;5093839;28;20249;-72
2022/12/10 10:08:13;;;;;;;22.07;17.93;;;;;;;1.80;100.00;97131.38;5093822;28;20198;-72
2022/12/10 10:10:42;;;;;;;23.73;18.83;;;;;;;1.76;100.00;97140.59;5093150;28;20259;-72
2022/12/10 10:13:08;;;;;;;22.50;17.67;;;;;;;1.97;100.00;97137.97;5093673;28;20208;-71
2022/12/10 10:15:42;;;;;;;21.80;17.03;;;;;;;1.90;100.00;97134.47;5093583;28;20235;-72
2022/12/10 10:18:33;;;;;;;25.37;19.20;;;;;;;1.69;100.00;97134.47;5093391;28;20534;-72
2022/12/10 10:21:02;;;;;;;22.23;18.57;;;;;;;1.71;100.00;97135.09;5093675;28;20228;-72
2022/12/10 10:23:29;;;;;;;22.87;17.57;;;;;;;1.94;100.00;97127.88;5093710;28;20210;-72
2022/12/10 10:25:55;;;;;;;22.40;17.77;;;;;;;1.58;100.00;97127.09;5093670;28;20210;-72
2022/12/10 10:28:23;;;;;;;24.63;18.47;;;;;;;1.90;100.00;97121.38;5093260;28;20562;-72
2022/12/10 10:30:52;;;;;;;21.97;17.53;;;;;;;1.82;100.00;97129.34;5093449;28;20219;-72
2022/12/10 10:33:19;;;;;;;22.70;19.00;;;;;;;1.80;100.00;97120.88;5093510;28;20207;-72
2022/12/10 10:35:54;;;;;;;20.90;17.63;;;;;;;1.85;100.00;97123.75;5093111;28;20236;-72
2022/12/10 10:38:23;;;;;;;23.70;19.53;;;;;;;1.82;100.00;97127.56;5093551;28;20267;-72
2022/12/10 10:40:53;;;;;;;20.73;18.03;;;;;;;1.83;100.00;97125.72;5093455;28;20235;-72
2022/12/10 10:43:22;;;;;;;23.00;18.47;;;;;;;1.88;100.00;97133.84;5093372;28;20225;-72
2022/12/10 10:45:59;;;;;;;23.00;18.20;;;;;;;2.09;100.00;97132.03;5093344;28;20206;-72
2022/12/10 10:48:27;;;;;;;21.77;18.17;;;;;;;1.94;100.00;97127.88;5093391;28;20234;-72
2022/12/10 10:50:56;;;;;;;21.17;16.87;;;;;;;1.86;100.00;97114.88;5092965;28;20235;-72
2022/12/10 10:53:25;;;;;;;21.93;16.97;;;;;;;1.83;100.00;97112.63;5091991;28;20723;-71
2022/12/10 10:55:54;;;;;;;20.67;16.87;;;;;;;1.65;100.00;97125.34;5092207;28;20232;-72
2022/12/10 10:58:22;;;;;;;23.27;18.83;;;;;;;1.59;100.00;97124.31;5091969;28;20204;-72
2022/12/10 11:00:59;;;;;;;22.27;17.70;;;;;;;1.70;100.00;97141.31;5091746;28;20234;-72
2022/12/10 11:03:27;;;;;;;24.33;19.00;;;;;;;1.93;100.00;97136.72;5092829;28;20547;-72
2022/12/10 11:05:56;;;;;;;22.50;18.30;;;;;;;2.04;100.00;97144.09;5091194;28;20204;-72
2022/12/10 11:08:27;;;;;;;23.43;18.20;;;;;;;2.01;100.00;97142.66;5092827;28;20663;-72
2022/12/10 11:11:03;;;;;;;22.67;17.97;;;;;;;2.00;100.00;97135.78;5090083;28;20257;-72
2022/12/10 11:13:35;;;;;;;22.07;17.83;;;;;;;2.10;100.00;97138.91;5092525;28;20188;-72
2022/12/10 11:16:12;;;;;;;20.13;16.23;;;;;;;1.90;100.00;97150.19;5083729;28;20243;-72
2022/12/10 11:18:42;;;;;;;21.97;17.07;;;;;;;1.98;100.00;97150.09;5090009;28;20552;-72
2022/12/10 11:21:14;;;;;;;22.67;17.90;;;;;;;1.97;100.00;97140.56;5092974;28;20599;-72
2022/12/10 11:23:43;;;;;;;19.07;15.87;;;;;;;2.02;100.00;97152.13;5095597;28;20226;-72
2022/12/10 11:26:35;;;;;;;19.57;16.57;;;;;;;1.83;100.00;97151.94;5096042;28;20207;-72
2022/12/10 11:29:22;;;;;;;24.13;17.87;;;;;;;2.08;100.00;97153.19;5057533;28;20203;-72
2022/12/10 11:32:25;;;;;;;22.23;17.07;;;;;;;2.18;100.00;97148.44;5095992;28;20702;-72
2022/12/10 11:35:10;;;;;;;21.47;17.00;;;;;;;1.92;100.00;97153.44;5096014;28;20203;-72
2022/12/10 11:37:50;;;;;;;22.13;16.77;;;;;;;2.10;100.00;97153.81;5095656;28;20235;-71